Time;durP1;ratioP1;P1;durP2;ratioP2;P2;SDS_P1;SDS_P2;PMS_P1;PMS_P2;Temp;Humidity;BMP_temperature;BMP_pressure;BME280_temperature;BME280_humidity;BME280_pressure;Samples;Min_cycle;Max_cycle;Signal;HPM_P1;HPM_P2
2022/07/17 00:00:59;;;;;;;2.03;0.90;;;25.10;40.30;;;;;;5031292;28;20486;-47
2022/07/17 00:03:27;;;;;;;1.23;0.83;;;25.10;40.30;;;;;;5025916;28;20447;-47
2022/07/17 00:05:55;;;;;;;1.60;1.00;;;25.10;40.30;;;;;;5031611;28;21018;-48
2022/07/17 00:08:23;;;;;;;1.00;0.90;;;25.10;40.40;;;;;;5031521;28;20482;-48
2022/07/17 00:10:52;;;;;;;3.03;1.10;;;25.10;40.40;;;;;;5027196;28;20546;-47
2022/07/17 00:13:20;;;;;;;0.83;0.83;;;25.10;40.40;;;;;;5031820;28;20987;-48
2022/07/17 00:15:49;;;;;;;2.40;1.07;;;25.10;40.40;;;;;;5031494;28;20468;-47
2022/07/17 00:18:17;;;;;;;1.20;1.10;;;25.00;40.50;;;;;;5031338;28;20526;-49
2022/07/17 00:20:45;;;;;;;1.53;0.80;;;25.10;40.50;;;;;;5028260;28;21027;-48
2022/07/17 00:23:13;;;;;;;1.13;1.00;;;25.00;40.40;;;;;;5031753;28;20908;-48
2022/07/17 00:25:41;;;;;;;2.77;1.10;;;25.10;40.50;;;;;;5029129;28;20460;-47
2022/07/17 00:28:09;;;;;;;1.23;0.83;;;25.00;40.50;;;;;;5037987;28;20534;-48
2022/07/17 00:30:38;;;;;;;2.40;0.90;;;25.10;40.50;;;;;;5030844;28;20456;-49
2022/07/17 00:33:07;;;;;;;1.10;0.90;;;25.00;40.50;;;;;;5028687;28;20783;-48
2022/07/17 00:35:35;;;;;;;1.40;0.90;;;25.00;40.50;;;;;;5030609;28;20486;-47
2022/07/17 00:38:03;;;;;;;0.80;0.80;;;25.00;40.50;;;;;;5031321;28;20815;-49
2022/07/17 00:40:31;;;;;;;1.30;1.20;;;25.00;40.60;;;;;;5022680;28;20468;-47
2022/07/17 00:43:00;;;;;;;1.53;1.00;;;25.00;40.60;;;;;;5033041;28;20431;-47
2022/07/17 00:45:28;;;;;;;1.70;1.17;;;25.00;40.60;;;;;;5034301;28;20464;-48
2022/07/17 00:47:59;;;;;;;1.60;1.10;;;25.00;40.70;;;;;;5026892;28;20908;-47
2022/07/17 00:50:31;;;;;;;2.17;0.87;;;25.00;40.70;;;;;;5029870;28;20953;-48
2022/07/17 00:52:59;;;;;;;1.20;1.10;;;25.00;40.70;;;;;;5031099;28;20440;-47
2022/07/17 00:55:27;;;;;;;0.93;0.67;;;25.00;40.80;;;;;;5024534;28;20539;-50
2022/07/17 00:58:13;;;;;;;1.33;0.77;;;25.00;40.60;;;;;;5030410;28;20613;-47
2022/07/17 01:00:42;;;;;;;1.10;1.00;;;25.00;40.80;;;;;;5029439;28;20590;-48
2022/07/17 01:03:10;;;;;;;2.13;1.10;;;25.00;40.80;;;;;;5030746;28;20526;-48
2022/07/17 01:05:39;;;;;;;1.40;1.30;;;25.00;40.80;;;;;;5020986;28;20527;-46
2022/07/17 01:08:08;;;;;;;2.73;1.10;;;25.00;40.80;;;;;;5030428;28;20440;-47
2022/07/17 01:10:36;;;;;;;2.20;0.93;;;25.00;40.80;;;;;;5028462;28;20490;-47
2022/07/17 01:13:07;;;;;;;2.40;1.30;;;25.00;41.20;;;;;;5030417;28;20438;-47
2022/07/17 01:15:38;;;;;;;2.73;1.53;;;25.00;40.80;;;;;;5029926;28;20503;-47
2022/07/17 01:18:08;;;;;;;3.23;0.83;;;25.00;40.90;;;;;;5024807;28;20981;-47
2022/07/17 01:20:37;;;;;;;0.90;0.80;;;25.00;40.90;;;;;;5029818;28;20529;-48
2022/07/17 01:23:06;;;;;;;1.43;1.00;;;25.00;40.90;;;;;;5030369;28;20527;-48
2022/07/17 01:25:35;;;;;;;2.30;1.20;;;25.00;41.00;;;;;;5026117;28;20504;-47
2022/07/17 01:28:05;;;;;;;1.80;0.77;;;25.00;40.90;;;;;;5030283;28;20451;-49
2022/07/17 01:30:33;;;;;;;1.70;0.97;;;24.90;40.90;;;;;;5026202;28;20974;-48
2022/07/17 01:33:02;;;;;;;1.43;0.90;;;24.90;40.90;;;;;;5028316;28;20436;-48
2022/07/17 01:35:31;;;;;;;1.07;0.60;;;24.90;41.00;;;;;;5025591;28;20467;-48
2022/07/17 01:38:00;;;;;;;0.80;0.70;;;24.90;41.00;;;;;;5030794;28;20424;-48
2022/07/17 01:40:29;;;;;;;1.60;0.90;;;24.90;41.00;;;;;;5028479;28;20559;-49
2022/07/17 01:42:57;;;;;;;1.10;1.00;;;24.90;41.10;;;;;;5030238;28;20443;-47
2022/07/17 01:45:25;;;;;;;1.10;1.00;;;24.90;41.10;;;;;;5027249;28;20492;-47
2022/07/17 01:47:53;;;;;;;0.90;0.70;;;24.90;41.20;;;;;;5019052;28;20496;-46
2022/07/17 01:50:21;;;;;;;1.03;0.80;;;24.90;41.20;;;;;;5025613;28;20476;-47
2022/07/17 01:52:49;;;;;;;1.73;1.13;;;24.90;41.20;;;;;;5023947;28;20859;-46
2022/07/17 01:55:17;;;;;;;1.17;1.00;;;24.90;41.10;;;;;;5026353;28;20478;-48
2022/07/17 01:57:47;;;;;;;3.13;0.87;;;24.90;41.20;;;;;;5029380;28;20462;-48
2022/07/17 02:00:17;;;;;;;0.90;0.80;;;24.90;41.20;;;;;;5028671;28;20464;-47
2022/07/17 02:02:45;;;;;;;1.07;0.80;;;24.90;41.20;;;;;;5080708;22;20512;-48
2022/07/17 02:05:14;;;;;;;1.00;0.83;;;24.90;41.20;;;;;;5084718;28;20832;-48
2022/07/17 02:07:44;;;;;;;1.33;1.00;;;24.90;41.20;;;;;;5089631;28;20453;-48
2022/07/17 02:10:13;;;;;;;1.20;0.80;;;24.90;41.30;;;;;;5085431;28;20456;-48
2022/07/17 02:12:43;;;;;;;0.80;0.70;;;24.90;41.30;;;;;;5090873;28;20438;-47
2022/07/17 02:15:13;;;;;;;1.27;1.07;;;24.90;41.20;;;;;;5089932;28;20461;-47
2022/07/17 02:17:42;;;;;;;1.43;1.10;;;24.90;41.20;;;;;;5084836;28;20568;-47
2022/07/17 02:20:11;;;;;;;1.40;0.93;;;24.90;41.30;;;;;;5089424;28;20470;-47
2022/07/17 02:22:40;;;;;;;1.53;1.03;;;24.90;41.30;;;;;;5090501;28;20413;-48
2022/07/17 02:25:11;;;;;;;1.07;0.93;;;24.90;41.30;;;;;;5085085;28;20461;-48
2022/07/17 02:27:40;;;;;;;1.30;1.00;;;24.90;41.30;;;;;;5079901;28;20470;-47
2022/07/17 02:30:11;;;;;;;1.50;0.80;;;24.80;41.20;;;;;;5084718;28;20548;-48
2022/07/17 02:32:41;;;;;;;2.00;1.53;;;24.80;41.30;;;;;;5082021;28;20444;-48
2022/07/17 02:35:10;;;;;;;1.20;1.03;;;24.80;41.30;;;;;;5084463;28;20548;-47
2022/07/17 02:37:39;;;;;;;1.07;0.97;;;24.80;41.30;;;;;;5079724;28;20466;-48
2022/07/17 02:40:09;;;;;;;1.40;1.10;;;24.80;41.30;;;;;;5077344;28;20554;-47
2022/07/17 02:42:37;;;;;;;1.33;1.03;;;24.80;41.30;;;;;;5082876;28;20421;-48
2022/07/17 02:45:07;;;;;;;1.20;1.00;;;24.80;41.30;;;;;;5076290;28;20462;-48
2022/07/17 02:47:36;;;;;;;1.10;1.00;;;24.80;41.40;;;;;;5079924;28;20955;-48
2022/07/17 02:50:08;;;;;;;1.00;0.80;;;24.80;41.50;;;;;;5075146;28;20842;-48
2022/07/17 02:52:36;;;;;;;0.97;0.80;;;24.80;41.40;;;;;;5080020;28;20441;-47
2022/07/17 02:55:06;;;;;;;1.67;1.23;;;24.80;41.50;;;;;;5081476;28;20534;-47
2022/07/17 02:57:34;;;;;;;1.13;1.03;;;24.80;41.50;;;;;;5079513;28;20823;-47
2022/07/17 03:00:02;;;;;;;1.40;0.73;;;24.80;41.60;;;;;;5090227;28;20465;-47
2022/07/17 03:02:30;;;;;;;1.10;1.00;;;24.80;41.60;;;;;;5082557;28;20536;-48
2022/07/17 03:04:59;;;;;;;0.90;0.80;;;24.80;41.50;;;;;;5089774;28;20506;-47
2022/07/17 03:07:28;;;;;;;1.47;1.10;;;24.70;41.50;;;;;;5082359;28;20569;-47
2022/07/17 03:09:56;;;;;;;1.00;0.90;;;24.70;41.50;;;;;;5083880;28;20442;-48
2022/07/17 03:12:24;;;;;;;1.20;0.80;;;24.70;41.50;;;;;;5089864;28;20437;-47
2022/07/17 03:14:52;;;;;;;1.30;1.20;;;24.70;41.50;;;;;;5090760;28;20908;-48
2022/07/17 03:17:20;;;;;;;1.53;1.00;;;24.70;41.60;;;;;;5080523;28;20812;-47
2022/07/17 03:19:48;;;;;;;1.00;0.83;;;24.70;41.60;;;;;;5076343;28;20468;-48
2022/07/17 03:22:16;;;;;;;1.37;0.90;;;24.70;41.50;;;;;;5088756;28;20540;-48
2022/07/17 03:24:46;;;;;;;1.13;0.87;;;24.70;41.60;;;;;;5087740;28;21037;-48
2022/07/17 03:27:14;;;;;;;1.37;1.03;;;24.70;41.60;;;;;;5089507;28;20459;-47
2022/07/17 03:29:42;;;;;;;1.30;1.20;;;24.70;41.60;;;;;;5083917;28;20551;-48
2022/07/17 03:32:11;;;;;;;2.30;1.07;;;24.70;41.60;;;;;;5087849;28;20850;-47
2022/07/17 03:34:39;;;;;;;1.60;1.27;;;24.70;41.60;;;;;;5085954;28;20514;-47
2022/07/17 03:37:07;;;;;;;0.90;0.80;;;24.70;41.60;;;;;;5092541;28;20487;-48
2022/07/17 03:39:35;;;;;;;1.50;1.07;;;24.70;41.60;;;;;;5081499;28;20463;-47
2022/07/17 03:42:05;;;;;;;1.40;1.10;;;24.70;41.60;;;;;;5084323;28;20494;-48
2022/07/17 03:44:33;;;;;;;1.20;1.10;;;24.70;41.70;;;;;;5081011;28;20453;-48
2022/07/17 03:47:02;;;;;;;1.87;1.13;;;24.70;41.60;;;;;;5087288;28;20531;-48
2022/07/17 03:49:30;;;;;;;1.20;0.80;;;24.70;41.70;;;;;;5077777;28;20884;-47
2022/07/17 03:51:58;;;;;;;2.30;0.93;;;24.70;41.70;;;;;;5090158;28;20478;-48
2022/07/17 03:54:26;;;;;;;1.40;1.10;;;24.60;41.60;;;;;;5087471;28;20540;-48
2022/07/17 03:56:54;;;;;;;1.87;1.20;;;24.60;41.60;;;;;;5088645;28;20469;-48
2022/07/17 03:59:24;;;;;;;1.30;1.17;;;24.60;41.70;;;;;;5074777;28;20544;-47
2022/07/17 04:01:53;;;;;;;1.47;1.37;;;24.60;41.80;;;;;;5086757;28;20576;-47
2022/07/17 04:04:21;;;;;;;1.67;0.93;;;24.60;41.70;;;;;;5082761;28;20460;-47
2022/07/17 04:06:49;;;;;;;1.00;1.00;;;24.60;41.70;;;;;;5092130;28;20536;-47
2022/07/17 04:09:20;;;;;;;1.47;1.33;;;24.60;41.80;;;;;;5086690;28;20490;-48
2022/07/17 04:11:48;;;;;;;1.30;1.20;;;24.60;41.80;;;;;;5092322;28;20512;-48
2022/07/17 04:14:16;;;;;;;2.33;1.30;;;24.60;41.70;;;;;;5091752;28;20469;-48
2022/07/17 04:16:45;;;;;;;1.87;1.20;;;24.60;41.70;;;;;;5092189;28;20503;-48
2022/07/17 04:19:14;;;;;;;1.40;1.10;;;24.50;41.80;;;;;;5084497;28;20877;-48
2022/07/17 04:21:42;;;;;;;2.00;1.30;;;24.50;43.00;;;;;;5091660;28;20457;-47
2022/07/17 04:24:10;;;;;;;1.67;1.50;;;24.50;42.00;;;;;;5085404;28;20936;-48
2022/07/17 04:26:38;;;;;;;2.03;1.40;;;24.60;41.80;;;;;;5081097;28;20461;-48
2022/07/17 04:29:06;;;;;;;1.00;0.90;;;24.50;41.80;;;;;;5083932;28;20762;-48
2022/07/17 04:31:35;;;;;;;1.20;0.87;;;24.50;41.80;;;;;;5085338;28;20598;-47
2022/07/17 04:34:04;;;;;;;1.10;1.00;;;24.50;41.80;;;;;;5085204;28;20442;-45
2022/07/17 04:36:32;;;;;;;1.33;1.00;;;24.50;41.90;;;;;;5084502;28;20456;-45
2022/07/17 04:39:00;;;;;;;1.30;1.20;;;24.50;41.90;;;;;;5085437;28;20823;-47
2022/07/17 04:41:28;;;;;;;1.60;1.20;;;24.50;41.80;;;;;;5084882;28;20457;-47
2022/07/17 04:43:57;;;;;;;1.47;0.83;;;24.50;41.80;;;;;;5080530;28;20434;-47
2022/07/17 04:46:25;;;;;;;1.50;1.10;;;24.50;41.90;;;;;;5090424;28;20453;-47
2022/07/17 04:48:53;;;;;;;1.87;1.20;;;24.50;42.00;;;;;;5084799;28;20549;-48
2022/07/17 04:51:23;;;;;;;1.23;1.13;;;24.50;41.90;;;;;;5088978;28;20449;-47
2022/07/17 04:53:51;;;;;;;1.27;1.00;;;24.50;41.90;;;;;;5083046;28;20528;-48
2022/07/17 04:56:19;;;;;;;1.40;1.10;;;24.50;42.00;;;;;;5080919;28;20467;-48
2022/07/17 04:58:48;;;;;;;1.20;1.07;;;24.50;42.00;;;;;;5078943;28;20452;-47
2022/07/17 05:01:16;;;;;;;3.10;1.53;;;24.50;42.10;;;;;;5081967;28;20474;-47
2022/07/17 05:03:44;;;;;;;1.17;0.90;;;24.40;41.90;;;;;;5083872;28;20450;-48
2022/07/17 05:06:12;;;;;;;1.57;1.00;;;24.40;42.00;;;;;;5079919;28;20508;-47
2022/07/17 05:08:41;;;;;;;1.70;1.60;;;24.50;42.10;;;;;;5085811;28;20432;-48
2022/07/17 05:11:10;;;;;;;1.37;1.23;;;24.40;42.00;;;;;;5085366;28;20876;-48
2022/07/17 05:13:38;;;;;;;1.90;1.20;;;24.40;42.10;;;;;;5088220;28;20453;-48
2022/07/17 05:16:07;;;;;;;2.10;1.23;;;24.40;42.10;;;;;;5081114;28;21010;-47
2022/07/17 05:18:35;;;;;;;1.33;1.00;;;24.40;42.10;;;;;;5085618;28;20435;-48
2022/07/17 05:21:03;;;;;;;1.00;0.90;;;24.40;42.10;;;;;;5086909;28;20913;-48
2022/07/17 05:23:31;;;;;;;0.80;0.70;;;24.40;42.20;;;;;;5086235;28;20486;-48
2022/07/17 05:26:01;;;;;;;1.30;1.20;;;24.40;42.10;;;;;;5085789;28;20496;-48
2022/07/17 05:28:29;;;;;;;1.20;1.07;;;24.40;42.10;;;;;;5084940;28;20837;-47
2022/07/17 05:31:05;;;;;;;1.30;1.20;;;24.40;42.10;;;;;;5086878;28;20974;-48
2022/07/17 05:33:33;;;;;;;1.20;1.07;;;24.40;42.10;;;;;;5081712;28;20445;-48
2022/07/17 05:36:02;;;;;;;1.20;1.10;;;24.40;42.10;;;;;;5086602;28;20548;-47
2022/07/17 05:38:30;;;;;;;1.20;1.00;;;24.40;42.30;;;;;;5083213;28;20434;-46
2022/07/17 05:40:58;;;;;;;2.77;1.23;;;24.40;42.20;;;;;;5085754;28;20495;-47
2022/07/17 05:43:28;;;;;;;1.10;1.00;;;24.40;42.10;;;;;;5081893;28;20458;-47
2022/07/17 05:45:56;;;;;;;1.20;1.10;;;24.40;42.20;;;;;;5089082;28;20893;-47
2022/07/17 05:48:26;;;;;;;1.40;1.30;;;24.40;42.20;;;;;;5083209;28;20457;-48
2022/07/17 05:50:54;;;;;;;1.30;1.20;;;24.40;42.20;;;;;;5079500;28;20549;-48
2022/07/17 05:53:22;;;;;;;1.20;1.10;;;24.40;42.20;;;;;;5080855;28;20846;-48
2022/07/17 05:55:52;;;;;;;1.30;1.20;;;24.40;42.30;;;;;;5080178;28;20462;-49
2022/07/17 05:58:21;;;;;;;8.43;3.40;;;24.40;42.30;;;;;;5078204;28;20472;-49
2022/07/17 06:00:50;;;;;;;5.73;3.30;;;24.30;40.80;;;;;;5074512;28;20495;-48
2022/07/17 06:03:18;;;;;;;4.97;3.50;;;24.20;40.50;;;;;;5084859;28;20536;-48
2022/07/17 06:05:47;;;;;;;8.07;2.97;;;24.10;40.20;;;;;;5082258;28;20533;-49
2022/07/17 06:08:15;;;;;;;5.23;4.07;;;24.00;40.80;;;;;;5089649;28;21024;-48
2022/07/17 06:10:43;;;;;;;5.43;3.77;;;24.00;41.00;;;;;;5085863;28;20457;-48
2022/07/17 06:13:13;;;;;;;5.50;3.10;;;23.80;41.30;;;;;;5088961;28;20430;-48
2022/07/17 06:15:42;;;;;;;5.13;3.00;;;23.80;41.10;;;;;;5090589;28;20459;-48
2022/07/17 06:18:11;;;;;;;6.70;3.00;;;23.70;40.80;;;;;;5089244;28;20444;-49
2022/07/17 06:20:39;;;;;;;5.10;2.87;;;23.60;40.60;;;;;;5084987;28;20468;-48
2022/07/17 06:23:07;;;;;;;4.80;2.57;;;23.60;40.40;;;;;;5089797;28;20471;-49
2022/07/17 06:25:35;;;;;;;3.23;2.40;;;23.50;40.60;;;;;;5078630;28;20921;-49
2022/07/17 06:28:04;;;;;;;3.93;3.00;;;23.50;40.00;;;;;;5081670;28;20456;-48
2022/07/17 06:30:32;;;;;;;6.87;2.30;;;23.50;40.30;;;;;;5074156;28;20461;-48
2022/07/17 06:33:00;;;;;;;5.30;2.80;;;23.50;40.60;;;;;;5082995;28;20442;-48
2022/07/17 06:35:30;;;;;;;3.10;2.53;;;23.40;40.50;;;;;;5091262;28;20560;-48
2022/07/17 06:37:58;;;;;;;6.03;3.60;;;23.40;40.40;;;;;;5088878;28;20433;-48
2022/07/17 06:40:27;;;;;;;8.10;4.27;;;23.40;40.40;;;;;;5080329;28;20465;-48
2022/07/17 06:42:55;;;;;;;4.77;2.70;;;23.40;40.00;;;;;;5090616;28;20472;-48
2022/07/17 06:45:24;;;;;;;6.07;3.03;;;23.40;40.30;;;;;;5089888;28;20561;-48
2022/07/17 06:47:52;;;;;;;3.90;2.77;;;23.50;39.60;;;;;;5088806;28;20857;-48
2022/07/17 06:50:20;;;;;;;3.97;2.40;;;23.50;40.20;;;;;;5074896;28;20569;-49
2022/07/17 06:52:50;;;;;;;5.17;2.80;;;23.60;39.70;;;;;;5091197;28;20472;-50
2022/07/17 06:55:18;;;;;;;5.07;2.37;;;23.60;39.40;;;;;;5081313;28;20470;-48
2022/07/17 06:57:46;;;;;;;5.60;2.50;;;23.70;39.40;;;;;;5081986;28;20811;-49
2022/07/17 07:00:17;;;;;;;4.20;2.10;;;23.70;39.40;;;;;;5089707;28;20510;-48
2022/07/17 07:02:46;;;;;;;2.93;2.07;;;23.80;39.20;;;;;;5085925;28;20496;-47
2022/07/17 07:05:14;;;;;;;4.90;2.50;;;23.90;38.80;;;;;;5084660;28;20462;-48
2022/07/17 07:07:42;;;;;;;4.53;2.40;;;23.90;38.90;;;;;;5082413;28;20508;-48
2022/07/17 07:10:12;;;;;;;3.30;2.10;;;23.90;38.90;;;;;;5077447;28;21050;-48
2022/07/17 07:12:41;;;;;;;6.67;2.40;;;24.00;38.60;;;;;;5089082;28;20825;-49
2022/07/17 07:15:10;;;;;;;7.43;3.20;;;24.00;38.50;;;;;;5083506;28;20469;-49
2022/07/17 07:17:40;;;;;;;5.57;2.40;;;23.90;38.40;;;;;;5083951;28;20449;-48
2022/07/17 07:20:10;;;;;;;4.87;2.47;;;23.80;38.30;;;;;;5076551;28;20484;-47
2022/07/17 07:22:38;;;;;;;4.50;2.20;;;23.70;38.80;;;;;;5087266;28;20492;-48
2022/07/17 07:25:07;;;;;;;5.03;1.90;;;23.70;39.20;;;;;;5081251;28;20527;-48
2022/07/17 07:27:37;;;;;;;5.43;1.90;;;23.70;39.40;;;;;;5087252;28;20449;-49
2022/07/17 07:30:09;;;;;;;5.20;2.07;;;23.70;40.70;;;;;;5085124;28;20461;-49
2022/07/17 07:32:38;;;;;;;3.10;1.63;;;23.70;39.50;;;;;;5081126;28;20451;-48
2022/07/17 07:35:07;;;;;;;5.43;2.13;;;23.70;39.60;;;;;;5083856;28;20473;-48
2022/07/17 07:37:36;;;;;;;6.10;2.33;;;23.70;39.60;;;;;;5087510;28;20487;-48
2022/07/17 07:40:06;;;;;;;3.10;1.70;;;23.70;39.70;;;;;;5085040;28;20531;-48
2022/07/17 07:42:34;;;;;;;2.90;1.80;;;23.70;39.80;;;;;;5085385;28;20458;-49
2022/07/17 07:45:06;;;;;;;4.23;1.87;;;23.70;39.90;;;;;;5085671;28;20493;-48
2022/07/17 07:47:41;;;;;;;2.60;1.80;;;23.70;39.90;;;;;;5079317;28;20552;-48
2022/07/17 07:50:11;;;;;;;2.70;1.40;;;23.70;39.90;;;;;;5077098;28;20473;-49
2022/07/17 07:52:40;;;;;;;3.43;1.60;;;23.80;40.00;;;;;;5084607;28;20813;-49
2022/07/17 07:55:10;;;;;;;2.50;1.40;;;23.80;40.00;;;;;;5085144;28;20469;-48
2022/07/17 07:57:46;;;;;;;1.63;1.53;;;23.80;40.10;;;;;;5090123;28;20461;-48
2022/07/17 08:00:16;;;;;;;1.83;1.53;;;23.80;40.20;;;;;;5086731;28;20556;-48
2022/07/17 08:02:44;;;;;;;2.50;1.50;;;23.80;40.10;;;;;;5092915;28;20855;-49
2022/07/17 08:05:13;;;;;;;1.93;1.57;;;23.80;40.20;;;;;;5080526;28;20500;-48
2022/07/17 08:07:41;;;;;;;2.00;1.30;;;23.80;40.30;;;;;;5091985;28;20445;-48
2022/07/17 08:10:09;;;;;;;2.17;1.50;;;23.80;40.20;;;;;;5086846;28;20510;-47
2022/07/17 08:12:38;;;;;;;3.43;1.77;;;23.80;40.30;;;;;;5093179;28;20457;-48
2022/07/17 08:15:18;;;;;;;4.60;1.67;;;23.80;40.30;;;;;;5093151;28;20484;-48
2022/07/17 08:17:46;;;;;;;2.67;1.53;;;23.80;40.30;;;;;;5092360;28;20902;-48
2022/07/17 08:20:15;;;;;;;2.20;1.63;;;23.80;40.30;;;;;;5086946;28;20547;-48
2022/07/17 08:22:45;;;;;;;2.93;1.43;;;23.80;40.40;;;;;;5091897;28;20895;-49
2022/07/17 08:25:33;;;;;;;1.87;1.10;;;23.80;40.40;;;;;;5079846;28;20505;-49
2022/07/17 08:28:03;;;;;;;2.30;1.10;;;23.80;40.50;;;;;;5080967;28;20525;-49
2022/07/17 08:30:34;;;;;;;2.07;1.80;;;23.80;40.50;;;;;;5074982;28;20496;-48
2022/07/17 08:33:03;;;;;;;3.10;1.30;;;23.80;40.50;;;;;;5083994;28;20793;-49
2022/07/17 08:35:32;;;;;;;3.00;1.27;;;23.80;40.60;;;;;;5070169;28;20482;-49
2022/07/17 08:38:01;;;;;;;2.13;1.47;;;23.80;40.60;;;;;;5084829;28;20542;-48
2022/07/17 08:40:31;;;;;;;3.50;1.20;;;23.80;40.60;;;;;;5081838;28;20469;-47
2022/07/17 08:43:01;;;;;;;3.33;1.50;;;23.90;40.80;;;;;;5087168;28;20584;-48
2022/07/17 08:45:29;;;;;;;1.87;1.30;;;23.90;40.80;;;;;;5083170;28;20471;-48
2022/07/17 08:48:00;;;;;;;2.00;1.13;;;23.80;40.80;;;;;;5084263;28;20688;-48
2022/07/17 08:50:31;;;;;;;2.00;1.33;;;23.80;40.80;;;;;;5080426;28;20465;-49
2022/07/17 08:53:01;;;;;;;5.37;1.63;;;23.80;40.80;;;;;;5087247;28;20941;-49
2022/07/17 08:55:30;;;;;;;4.70;1.70;;;23.80;40.80;;;;;;5082189;28;20543;-48
2022/07/17 08:57:58;;;;;;;3.20;1.40;;;23.80;40.70;;;;;;5087102;28;20823;-48
2022/07/17 09:00:28;;;;;;;1.73;1.30;;;23.90;40.90;;;;;;5086227;28;20468;-48
2022/07/17 09:03:01;;;;;;;2.23;1.47;;;23.80;40.80;;;;;;5079407;28;20500;-48
2022/07/17 09:05:31;;;;;;;1.90;1.33;;;23.80;40.70;;;;;;5075907;28;20469;-48
2022/07/17 09:07:59;;;;;;;1.53;1.37;;;23.90;40.80;;;;;;5083228;28;20437;-47
2022/07/17 09:10:33;;;;;;;1.57;1.07;;;23.90;40.90;;;;;;5083939;28;20500;-49
2022/07/17 09:13:02;;;;;;;1.70;1.50;;;23.90;40.90;;;;;;5078998;28;20810;-47
2022/07/17 09:15:34;;;;;;;2.13;1.47;;;23.80;40.80;;;;;;5085735;28;20472;-48
2022/07/17 09:18:04;;;;;;;1.70;1.40;;;23.90;41.00;;;;;;5085471;28;20438;-49
2022/07/17 09:20:32;;;;;;;1.70;1.50;;;23.90;41.00;;;;;;5080192;28;20465;-49
2022/07/17 09:23:03;;;;;;;1.70;1.30;;;23.80;40.90;;;;;;5077497;28;20857;-48
2022/07/17 09:25:39;;;;;;;3.87;1.70;;;23.90;41.10;;;;;;5077701;28;20477;-48
2022/07/17 09:28:09;;;;;;;1.40;1.30;;;23.90;41.00;;;;;;5085650;28;21003;-49
2022/07/17 09:30:40;;;;;;;1.30;1.10;;;23.80;40.80;;;;;;5083972;28;20501;-48
2022/07/17 09:33:14;;;;;;;2.23;1.17;;;23.80;41.00;;;;;;5088027;28;20455;-48
2022/07/17 09:35:50;;;;;;;2.33;1.40;;;23.80;41.10;;;;;;5088077;28;20465;-48
2022/07/17 09:38:33;;;;;;;3.43;1.33;;;23.80;41.00;;;;;;5088679;28;20544;-48
2022/07/17 09:41:12;;;;;;;1.97;1.07;;;23.90;41.00;;;;;;5088567;28;20487;-48
2022/07/17 09:43:44;;;;;;;1.60;1.40;;;23.90;41.00;;;;;;5083688;28;20453;-48
2022/07/17 09:46:16;;;;;;;2.27;1.30;;;23.90;41.10;;;;;;5089481;28;20857;-48
2022/07/17 09:48:48;;;;;;;1.33;1.10;;;23.90;41.10;;;;;;5086034;28;20484;-48
2022/07/17 09:51:19;;;;;;;2.00;1.50;;;23.90;41.00;;;;;;5089276;28;20461;-48
2022/07/17 09:53:48;;;;;;;1.30;0.97;;;23.90;41.00;;;;;;5089099;28;20482;-48
2022/07/17 09:56:18;;;;;;;3.43;1.67;;;23.90;41.00;;;;;;5089137;28;20463;-49
2022/07/17 09:58:49;;;;;;;1.40;1.10;;;23.90;41.00;;;;;;5090697;28;20815;-48
2022/07/17 10:01:18;;;;;;;1.57;1.20;;;23.80;41.00;;;;;;5089739;28;20964;-48
2022/07/17 10:03:51;;;;;;;1.10;1.00;;;23.80;41.00;;;;;;5083784;28;20468;-48
2022/07/17 10:06:21;;;;;;;1.83;1.33;;;23.90;41.20;;;;;;5081697;28;20495;-48
2022/07/17 10:08:51;;;;;;;1.97;1.40;;;23.90;41.20;;;;;;5087623;28;20421;-48
2022/07/17 10:11:21;;;;;;;0.80;0.80;;;23.90;41.20;;;;;;5087450;28;20826;-48
2022/07/17 10:13:52;;;;;;;1.20;1.10;;;23.90;41.20;;;;;;5090228;28;20464;-48
2022/07/17 10:16:25;;;;;;;1.73;1.20;;;23.90;41.20;;;;;;5089641;28;20508;-48
2022/07/17 10:18:57;;;;;;;1.50;1.40;;;23.90;41.20;;;;;;5084168;28;20453;-47
2022/07/17 10:21:28;;;;;;;1.00;0.80;;;23.90;41.20;;;;;;5085432;28;20461;-48
2022/07/17 10:24:10;;;;;;;1.40;1.10;;;23.90;41.20;;;;;;5082635;28;20976;-48
2022/07/17 10:26:44;;;;;;;1.13;1.03;;;23.90;41.10;;;;;;5079074;28;20510;-47
2022/07/17 10:29:31;;;;;;;1.67;1.17;;;23.90;41.20;;;;;;5081363;28;20444;-47
2022/07/17 10:32:01;;;;;;;1.30;1.20;;;23.90;41.20;;;;;;5069925;22;20502;-48
2022/07/17 10:34:42;;;;;;;1.70;1.27;;;23.90;41.10;;;;;;5049124;28;20469;-47
2022/07/17 10:37:24;;;;;;;1.50;1.27;;;23.90;41.10;;;;;;5048716;28;20485;-47
2022/07/17 10:39:55;;;;;;;1.37;1.27;;;23.90;41.20;;;;;;5045661;28;20564;-47
2022/07/17 10:42:44;;;;;;;1.30;1.17;;;23.90;41.20;;;;;;5049466;28;20439;-47
2022/07/17 10:45:14;;;;;;;1.20;1.00;;;23.90;41.30;;;;;;5049196;28;20463;-47
2022/07/17 10:47:47;;;;;;;1.70;1.40;;;23.90;41.20;;;;;;5048161;28;20469;-48
2022/07/17 10:50:18;;;;;;;1.20;1.10;;;23.90;40.90;;;;;;5047446;28;20463;-47
2022/07/17 10:53:08;;;;;;;1.47;1.20;;;23.90;41.00;;;;;;5049811;28;20439;-47
2022/07/17 10:55:37;;;;;;;1.47;1.20;;;23.90;41.20;;;;;;5045853;28;20467;-48
2022/07/17 10:58:15;;;;;;;1.87;1.23;;;23.90;41.10;;;;;;5049809;28;21031;-48
2022/07/17 11:00:43;;;;;;;1.30;1.03;;;23.90;41.20;;;;;;5048709;28;20875;-47
2022/07/17 11:03:12;;;;;;;1.80;1.00;;;23.90;41.20;;;;;;5048494;28;20442;-47
2022/07/17 11:05:42;;;;;;;1.13;1.03;;;23.90;41.20;;;;;;5046591;28;20521;-52
2022/07/17 11:08:11;;;;;;;1.20;1.10;;;23.90;41.30;;;;;;5048775;28;20471;-47
2022/07/17 11:10:39;;;;;;;2.40;1.30;;;23.90;41.30;;;;;;5044927;28;20475;-48
2022/07/17 11:13:12;;;;;;;0.90;0.73;;;23.90;41.20;;;;;;5049352;28;20522;-47
2022/07/17 11:15:45;;;;;;;1.03;0.80;;;23.90;41.30;;;;;;5048663;28;20498;-46
2022/07/17 11:18:15;;;;;;;1.13;0.97;;;24.00;41.40;;;;;;5042767;28;20506;-47
2022/07/17 11:20:53;;;;;;;1.10;0.80;;;23.90;41.30;;;;;;5049467;28;20481;-46
2022/07/17 11:23:23;;;;;;;1.60;1.20;;;23.90;41.40;;;;;;5052994;28;20437;-47
2022/07/17 11:25:56;;;;;;;1.60;1.00;;;24.00;41.50;;;;;;5050618;28;20478;-46
2022/07/17 11:28:32;;;;;;;2.10;1.13;;;24.00;41.50;;;;;;5052500;28;20427;-47
2022/07/17 11:31:02;;;;;;;1.20;1.00;;;24.00;41.60;;;;;;5052675;28;20462;-47
2022/07/17 11:33:30;;;;;;;1.30;1.20;;;24.00;41.60;;;;;;5046296;28;20439;-46
2022/07/17 11:36:00;;;;;;;2.37;1.20;;;24.00;41.30;;;;;;5052349;28;20483;-47
2022/07/17 11:38:30;;;;;;;1.10;0.93;;;24.00;42.60;;;;;;5052481;28;20450;-47
2022/07/17 11:40:58;;;;;;;2.00;1.30;;;24.00;41.40;;;;;;5047791;28;20463;-47
2022/07/17 11:43:39;;;;;;;1.53;1.10;;;24.00;41.50;;;;;;5052958;28;20428;-47
2022/07/17 11:46:08;;;;;;;1.57;1.00;;;24.00;41.40;;;;;;5048455;28;20474;-47
2022/07/17 11:48:36;;;;;;;1.33;1.20;;;24.00;41.40;;;;;;5043914;28;20877;-47
2022/07/17 11:51:06;;;;;;;1.43;0.90;;;24.00;41.40;;;;;;5029128;28;20482;-48
2022/07/17 11:53:36;;;;;;;1.33;1.10;;;24.10;41.60;;;;;;5044932;28;20489;-47
2022/07/17 11:56:05;;;;;;;1.23;1.10;;;24.00;41.40;;;;;;5048960;28;20520;-48
2022/07/17 11:58:45;;;;;;;1.63;1.47;;;24.10;41.60;;;;;;5044699;28;20450;-47
2022/07/17 12:01:14;;;;;;;1.40;1.10;;;24.10;41.60;;;;;;5051970;28;20455;-47
2022/07/17 12:03:42;;;;;;;1.37;1.27;;;24.10;41.60;;;;;;5050906;28;20447;-47
2022/07/17 12:06:12;;;;;;;1.13;1.03;;;24.10;41.50;;;;;;5051617;28;20568;-46
2022/07/17 12:08:40;;;;;;;1.20;1.10;;;24.10;41.50;;;;;;5044066;28;20427;-47
2022/07/17 12:11:09;;;;;;;1.20;1.10;;;24.10;41.50;;;;;;5049123;28;20451;-47
2022/07/17 12:13:43;;;;;;;1.20;1.00;;;24.10;42.70;;;;;;5052449;28;20949;-47
2022/07/17 12:16:29;;;;;;;2.07;0.87;;;24.10;41.30;;;;;;5051684;28;20459;-47
2022/07/17 12:19:03;;;;;;;0.90;0.80;;;24.10;41.20;;;;;;5050201;28;20509;-47
2022/07/17 12:21:34;;;;;;;1.37;1.07;;;24.10;41.10;;;;;;5052561;28;20455;-47
2022/07/17 12:24:05;;;;;;;3.23;1.10;;;24.10;41.30;;;;;;5048052;28;20448;-47
2022/07/17 12:26:34;;;;;;;1.30;1.20;;;24.10;41.50;;;;;;5044839;28;21063;-46
2022/07/17 12:29:03;;;;;;;1.20;1.00;;;24.10;41.40;;;;;;5045504;28;20466;-47
2022/07/17 12:31:31;;;;;;;1.93;1.07;;;24.10;41.50;;;;;;5051437;28;20431;-46
2022/07/17 12:33:59;;;;;;;1.67;1.20;;;24.20;41.60;;;;;;5047100;28;20496;-46
2022/07/17 12:36:27;;;;;;;1.07;0.80;;;24.10;41.50;;;;;;5051047;28;20459;-46
2022/07/17 12:38:57;;;;;;;1.60;1.10;;;24.20;41.50;;;;;;5049899;28;20833;-47
2022/07/17 12:41:25;;;;;;;1.10;0.80;;;24.20;41.40;;;;;;5049931;28;20479;-47
2022/07/17 12:43:53;;;;;;;1.10;1.00;;;24.20;41.30;;;;;;5043613;28;20843;-46
2022/07/17 12:46:21;;;;;;;1.50;0.80;;;24.20;41.50;;;;;;5043769;28;20521;-47
2022/07/17 12:48:50;;;;;;;1.37;1.00;;;24.20;41.40;;;;;;5046935;28;20847;-46
2022/07/17 12:51:18;;;;;;;1.00;0.90;;;24.20;41.30;;;;;;5045788;28;20833;-47
2022/07/17 12:53:46;;;;;;;1.20;0.87;;;24.20;41.20;;;;;;5049783;28;20427;-47
2022/07/17 12:56:16;;;;;;;2.57;1.20;;;24.30;41.30;;;;;;5049299;28;20809;-48
2022/07/17 12:58:44;;;;;;;1.63;1.20;;;24.20;41.30;;;;;;5052536;28;20431;-48
2022/07/17 13:01:13;;;;;;;1.20;0.90;;;24.20;41.50;;;;;;5052138;28;20546;-46